sensor_id;sensor_type;location;lat;lon;timestamp;P1;durP1;ratioP1;P2;durP2;ratioP2
84893;SDS011;75409;50.000;9.432;2024-02-15T00:02:22;3.63;;;2.67;;
84893;SDS011;75409;50.000;9.432;2024-02-15T00:04:48;4.20;;;2.72;;
84893;SDS011;75409;50.000;9.432;2024-02-15T00:07:13;5.03;;;2.22;;
84893;SDS011;75409;50.000;9.432;2024-02-15T00:09:39;4.22;;;2.88;;
84893;SDS011;75409;50.000;9.432;2024-02-15T00:12:04;5.17;;;2.83;;
84893;SDS011;75409;50.000;9.432;2024-02-15T00:14:30;5.32;;;2.63;;
84893;SDS011;75409;50.000;9.432;2024-02-15T00:16:56;5.40;;;2.90;;
84893;SDS011;75409;50.000;9.432;2024-02-15T00:19:21;5.45;;;3.42;;
84893;SDS011;75409;50.000;9.432;2024-02-15T00:21:47;6.17;;;4.07;;
84893;SDS011;75409;50.000;9.432;2024-02-15T00:24:12;7.05;;;3.13;;
84893;SDS011;75409;50.000;9.432;2024-02-15T00:26:39;5.05;;;3.20;;
84893;SDS011;75409;50.000;9.432;2024-02-15T00:29:05;6.43;;;3.92;;
84893;SDS011;75409;50.000;9.432;2024-02-15T00:31:30;7.65;;;3.67;;
84893;SDS011;75409;50.000;9.432;2024-02-15T00:33:55;7.43;;;3.90;;
84893;SDS011;75409;50.000;9.432;2024-02-15T00:36:21;6.47;;;3.23;;
84893;SDS011;75409;50.000;9.432;2024-02-15T00:38:46;4.63;;;3.43;;
84893;SDS011;75409;50.000;9.432;2024-02-15T00:41:11;5.77;;;3.30;;
84893;SDS011;75409;50.000;9.432;2024-02-15T00:43:37;5.45;;;3.30;;
84893;SDS011;75409;50.000;9.432;2024-02-15T00:46:03;5.00;;;3.38;;
84893;SDS011;75409;50.000;9.432;2024-02-15T00:48:28;5.07;;;3.40;;
84893;SDS011;75409;50.000;9.432;2024-02-15T00:50:54;6.68;;;3.33;;
84893;SDS011;75409;50.000;9.432;2024-02-15T00:53:20;6.03;;;3.10;;
84893;SDS011;75409;50.000;9.432;2024-02-15T00:55:45;5.65;;;3.35;;
84893;SDS011;75409;50.000;9.432;2024-02-15T00:58:11;4.88;;;3.78;;
84893;SDS011;75409;50.000;9.432;2024-02-15T01:00:37;6.40;;;3.35;;
84893;SDS011;75409;50.000;9.432;2024-02-15T01:03:03;9.30;;;3.65;;
84893;SDS011;75409;50.000;9.432;2024-02-15T01:05:29;7.15;;;3.45;;
84893;SDS011;75409;50.000;9.432;2024-02-15T01:07:55;6.13;;;3.45;;
84893;SDS011;75409;50.000;9.432;2024-02-15T01:10:21;6.28;;;3.22;;
84893;SDS011;75409;50.000;9.432;2024-02-15T01:12:47;4.88;;;3.50;;
84893;SDS011;75409;50.000;9.432;2024-02-15T01:15:13;8.63;;;3.25;;
84893;SDS011;75409;50.000;9.432;2024-02-15T01:17:39;6.78;;;3.30;;
84893;SDS011;75409;50.000;9.432;2024-02-15T01:20:05;6.37;;;3.50;;
84893;SDS011;75409;50.000;9.432;2024-02-15T01:22:31;6.22;;;3.72;;
84893;SDS011;75409;50.000;9.432;2024-02-15T01:24:57;5.67;;;4.23;;
84893;SDS011;75409;50.000;9.432;2024-02-15T01:27:23;5.35;;;3.22;;
84893;SDS011;75409;50.000;9.432;2024-02-15T01:29:48;5.37;;;3.17;;
84893;SDS011;75409;50.000;9.432;2024-02-15T01:32:13;6.83;;;3.03;;
84893;SDS011;75409;50.000;9.432;2024-02-15T01:34:39;7.40;;;3.40;;
84893;SDS011;75409;50.000;9.432;2024-02-15T01:37:05;7.57;;;4.53;;
84893;SDS011;75409;50.000;9.432;2024-02-15T01:39:30;4.40;;;2.97;;
84893;SDS011;75409;50.000;9.432;2024-02-15T01:41:56;5.60;;;3.90;;
84893;SDS011;75409;50.000;9.432;2024-02-15T01:44:21;6.60;;;3.30;;
84893;SDS011;75409;50.000;9.432;2024-02-15T01:46:49;9.43;;;3.63;;
84893;SDS011;75409;50.000;9.432;2024-02-15T01:49:15;4.70;;;3.13;;
84893;SDS011;75409;50.000;9.432;2024-02-15T01:51:40;7.32;;;2.72;;
84893;SDS011;75409;50.000;9.432;2024-02-15T01:54:08;6.55;;;2.78;;
84893;SDS011;75409;50.000;9.432;2024-02-15T01:56:34;4.55;;;2.92;;
84893;SDS011;75409;50.000;9.432;2024-02-15T01:59:00;7.00;;;3.70;;
84893;SDS011;75409;50.000;9.432;2024-02-15T02:01:26;5.13;;;3.08;;
84893;SDS011;75409;50.000;9.432;2024-02-15T02:03:52;6.50;;;3.35;;
84893;SDS011;75409;50.000;9.432;2024-02-15T02:06:18;4.93;;;2.90;;
84893;SDS011;75409;50.000;9.432;2024-02-15T02:08:43;6.85;;;3.13;;
84893;SDS011;75409;50.000;9.432;2024-02-15T02:11:08;6.50;;;3.43;;
84893;SDS011;75409;50.000;9.432;2024-02-15T02:13:34;3.78;;;2.92;;
84893;SDS011;75409;50.000;9.432;2024-02-15T02:16:00;6.65;;;3.55;;
84893;SDS011;75409;50.000;9.432;2024-02-15T02:18:25;4.73;;;2.87;;
84893;SDS011;75409;50.000;9.432;2024-02-15T02:20:50;5.43;;;3.63;;
84893;SDS011;75409;50.000;9.432;2024-02-15T02:23:16;7.60;;;3.10;;
84893;SDS011;75409;50.000;9.432;2024-02-15T02:25:45;6.13;;;3.08;;
84893;SDS011;75409;50.000;9.432;2024-02-15T02:28:14;4.75;;;2.67;;
84893;SDS011;75409;50.000;9.432;2024-02-15T02:30:40;6.35;;;3.35;;
84893;SDS011;75409;50.000;9.432;2024-02-15T02:33:10;6.75;;;3.67;;
84893;SDS011;75409;50.000;9.432;2024-02-15T02:35:44;6.25;;;3.10;;
84893;SDS011;75409;50.000;9.432;2024-02-15T02:38:09;7.38;;;3.13;;
84893;SDS011;75409;50.000;9.432;2024-02-15T02:40:35;7.50;;;3.05;;
84893;SDS011;75409;50.000;9.432;2024-02-15T02:43:01;5.78;;;3.22;;
84893;SDS011;75409;50.000;9.432;2024-02-15T02:45:26;6.22;;;2.90;;
84893;SDS011;75409;50.000;9.432;2024-02-15T02:47:52;4.97;;;3.05;;
84893;SDS011;75409;50.000;9.432;2024-02-15T02:50:18;6.43;;;3.20;;
84893;SDS011;75409;50.000;9.432;2024-02-15T02:52:44;5.13;;;2.42;;
84893;SDS011;75409;50.000;9.432;2024-02-15T02:55:09;5.25;;;2.80;;
84893;SDS011;75409;50.000;9.432;2024-02-15T02:57:36;5.05;;;3.45;;
84893;SDS011;75409;50.000;9.432;2024-02-15T03:00:05;5.70;;;3.30;;
84893;SDS011;75409;50.000;9.432;2024-02-15T03:02:38;5.50;;;2.30;;
84893;SDS011;75409;50.000;9.432;2024-02-15T03:05:06;5.78;;;2.40;;
84893;SDS011;75409;50.000;9.432;2024-02-15T03:07:33;6.10;;;2.53;;
84893;SDS011;75409;50.000;9.432;2024-02-15T03:09:59;7.15;;;2.58;;
84893;SDS011;75409;50.000;9.432;2024-02-15T03:12:25;4.20;;;2.53;;
84893;SDS011;75409;50.000;9.432;2024-02-15T03:14:51;4.82;;;3.38;;
84893;SDS011;75409;50.000;9.432;2024-02-15T03:17:17;4.93;;;2.90;;
84893;SDS011;75409;50.000;9.432;2024-02-15T03:19:42;5.27;;;2.70;;
84893;SDS011;75409;50.000;9.432;2024-02-15T03:22:07;3.95;;;2.92;;
84893;SDS011;75409;50.000;9.432;2024-02-15T03:24:33;9.37;;;2.70;;
84893;SDS011;75409;50.000;9.432;2024-02-15T03:26:58;4.05;;;3.03;;
84893;SDS011;75409;50.000;9.432;2024-02-15T03:29:23;5.07;;;2.87;;
84893;SDS011;75409;50.000;9.432;2024-02-15T03:31:50;7.35;;;2.75;;
84893;SDS011;75409;50.000;9.432;2024-02-15T03:34:17;5.05;;;2.67;;
84893;SDS011;75409;50.000;9.432;2024-02-15T03:36:46;5.22;;;3.08;;
84893;SDS011;75409;50.000;9.432;2024-02-15T03:39:12;5.90;;;2.75;;
84893;SDS011;75409;50.000;9.432;2024-02-15T03:41:37;5.57;;;3.03;;
84893;SDS011;75409;50.000;9.432;2024-02-15T03:44:02;10.15;;;4.18;;
84893;SDS011;75409;50.000;9.432;2024-02-15T03:46:28;5.72;;;3.08;;
84893;SDS011;75409;50.000;9.432;2024-02-15T03:48:54;4.30;;;2.73;;
84893;SDS011;75409;50.000;9.432;2024-02-15T03:51:22;4.70;;;2.25;;
84893;SDS011;75409;50.000;9.432;2024-02-15T03:53:49;4.53;;;2.70;;
84893;SDS011;75409;50.000;9.432;2024-02-15T03:56:15;6.78;;;2.75;;
84893;SDS011;75409;50.000;9.432;2024-02-15T03:58:41;5.72;;;2.60;;
84893;SDS011;75409;50.000;9.432;2024-02-15T04:01:06;5.23;;;3.20;;
84893;SDS011;75409;50.000;9.432;2024-02-15T04:03:33;3.78;;;2.65;;
84893;SDS011;75409;50.000;9.432;2024-02-15T04:05:59;8.70;;;3.13;;
84893;SDS011;75409;50.000;9.432;2024-02-15T04:08:25;3.95;;;2.55;;
84893;SDS011;75409;50.000;9.432;2024-02-15T04:10:50;5.15;;;2.83;;
84893;SDS011;75409;50.000;9.432;2024-02-15T04:13:16;6.07;;;2.60;;
84893;SDS011;75409;50.000;9.432;2024-02-15T04:15:44;5.28;;;2.60;;
84893;SDS011;75409;50.000;9.432;2024-02-15T04:18:21;7.07;;;2.83;;
84893;SDS011;75409;50.000;9.432;2024-02-15T04:20:47;4.25;;;3.33;;
84893;SDS011;75409;50.000;9.432;2024-02-15T04:23:13;5.32;;;2.97;;
84893;SDS011;75409;50.000;9.432;2024-02-15T04:25:39;3.35;;;2.42;;
84893;SDS011;75409;50.000;9.432;2024-02-15T04:28:06;9.25;;;3.85;;
84893;SDS011;75409;50.000;9.432;2024-02-15T04:30:34;5.05;;;3.25;;
84893;SDS011;75409;50.000;9.432;2024-02-15T04:33:04;4.38;;;2.65;;
84893;SDS011;75409;50.000;9.432;2024-02-15T04:35:30;5.93;;;2.83;;
84893;SDS011;75409;50.000;9.432;2024-02-15T04:37:57;4.10;;;2.47;;
84893;SDS011;75409;50.000;9.432;2024-02-15T04:40:23;5.50;;;3.17;;
84893;SDS011;75409;50.000;9.432;2024-02-15T04:42:48;4.10;;;2.47;;
84893;SDS011;75409;50.000;9.432;2024-02-15T04:45:13;4.90;;;3.03;;
84893;SDS011;75409;50.000;9.432;2024-02-15T04:47:40;5.68;;;3.28;;
84893;SDS011;75409;50.000;9.432;2024-02-15T04:50:06;7.85;;;3.58;;
84893;SDS011;75409;50.000;9.432;2024-02-15T04:52:33;5.07;;;2.85;;
84893;SDS011;75409;50.000;9.432;2024-02-15T04:54:58;7.85;;;3.72;;
84893;SDS011;75409;50.000;9.432;2024-02-15T04:57:24;5.97;;;3.50;;
84893;SDS011;75409;50.000;9.432;2024-02-15T04:59:58;7.28;;;3.17;;
84893;SDS011;75409;50.000;9.432;2024-02-15T05:02:24;5.70;;;2.90;;
84893;SDS011;75409;50.000;9.432;2024-02-15T05:04:50;5.23;;;3.40;;
84893;SDS011;75409;50.000;9.432;2024-02-15T05:07:21;3.92;;;2.63;;
84893;SDS011;75409;50.000;9.432;2024-02-15T05:09:47;5.07;;;3.65;;
84893;SDS011;75409;50.000;9.432;2024-02-15T05:12:23;5.47;;;3.88;;
84893;SDS011;75409;50.000;9.432;2024-02-15T05:14:49;7.13;;;4.65;;
84893;SDS011;75409;50.000;9.432;2024-02-15T05:17:15;7.97;;;4.18;;
84893;SDS011;75409;50.000;9.432;2024-02-15T05:19:41;9.60;;;5.25;;
84893;SDS011;75409;50.000;9.432;2024-02-15T05:22:06;12.05;;;6.13;;
84893;SDS011;75409;50.000;9.432;2024-02-15T05:24:33;9.30;;;5.60;;
84893;SDS011;75409;50.000;9.432;2024-02-15T05:26:59;12.23;;;6.35;;
84893;SDS011;75409;50.000;9.432;2024-02-15T05:29:36;10.93;;;6.43;;
84893;SDS011;75409;50.000;9.432;2024-02-15T05:32:06;11.80;;;7.80;;
84893;SDS011;75409;50.000;9.432;2024-02-15T05:34:35;15.10;;;8.95;;
84893;SDS011;75409;50.000;9.432;2024-02-15T05:37:04;14.05;;;8.27;;
84893;SDS011;75409;50.000;9.432;2024-02-15T05:39:31;12.10;;;7.70;;
84893;SDS011;75409;50.000;9.432;2024-02-15T05:41:56;13.20;;;7.90;;
84893;SDS011;75409;50.000;9.432;2024-02-15T05:44:25;12.40;;;7.95;;
84893;SDS011;75409;50.000;9.432;2024-02-15T05:46:54;10.68;;;6.88;;
84893;SDS011;75409;50.000;9.432;2024-02-15T05:49:19;11.03;;;6.97;;
84893;SDS011;75409;50.000;9.432;2024-02-15T05:51:44;12.93;;;8.50;;
84893;SDS011;75409;50.000;9.432;2024-02-15T05:54:10;13.15;;;8.73;;
84893;SDS011;75409;50.000;9.432;2024-02-15T05:56:36;11.18;;;7.63;;
84893;SDS011;75409;50.000;9.432;2024-02-15T05:59:01;11.18;;;6.97;;
84893;SDS011;75409;50.000;9.432;2024-02-15T06:01:35;13.48;;;8.57;;
84893;SDS011;75409;50.000;9.432;2024-02-15T06:04:01;11.30;;;7.30;;
84893;SDS011;75409;50.000;9.432;2024-02-15T06:06:27;11.27;;;6.43;;
84893;SDS011;75409;50.000;9.432;2024-02-15T06:08:53;9.98;;;5.97;;
84893;SDS011;75409;50.000;9.432;2024-02-15T06:11:22;9.93;;;5.45;;
84893;SDS011;75409;50.000;9.432;2024-02-15T06:13:48;8.23;;;5.00;;
84893;SDS011;75409;50.000;9.432;2024-02-15T06:16:14;8.18;;;5.40;;
84893;SDS011;75409;50.000;9.432;2024-02-15T06:18:39;10.75;;;6.82;;
84893;SDS011;75409;50.000;9.432;2024-02-15T06:21:04;10.30;;;6.70;;
84893;SDS011;75409;50.000;9.432;2024-02-15T06:23:30;10.95;;;7.47;;
84893;SDS011;75409;50.000;9.432;2024-02-15T06:25:58;10.05;;;6.05;;
84893;SDS011;75409;50.000;9.432;2024-02-15T06:28:24;10.52;;;6.00;;
84893;SDS011;75409;50.000;9.432;2024-02-15T06:31:08;9.57;;;6.13;;
84893;SDS011;75409;50.000;9.432;2024-02-15T06:33:53;10.48;;;5.45;;
84893;SDS011;75409;50.000;9.432;2024-02-15T06:36:46;8.57;;;5.55;;
84893;SDS011;75409;50.000;9.432;2024-02-15T06:39:31;9.15;;;4.78;;
84893;SDS011;75409;50.000;9.432;2024-02-15T06:42:15;7.97;;;4.70;;
84893;SDS011;75409;50.000;9.432;2024-02-15T06:44:42;11.18;;;4.88;;
84893;SDS011;75409;50.000;9.432;2024-02-15T06:47:08;6.95;;;4.50;;
84893;SDS011;75409;50.000;9.432;2024-02-15T06:49:36;8.77;;;4.85;;
84893;SDS011;75409;50.000;9.432;2024-02-15T06:52:04;9.57;;;7.25;;
84893;SDS011;75409;50.000;9.432;2024-02-15T06:54:32;14.07;;;9.40;;
84893;SDS011;75409;50.000;9.432;2024-02-15T06:56:58;10.57;;;7.13;;
84893;SDS011;75409;50.000;9.432;2024-02-15T06:59:23;12.63;;;8.20;;
84893;SDS011;75409;50.000;9.432;2024-02-15T07:01:49;14.45;;;8.60;;
84893;SDS011;75409;50.000;9.432;2024-02-15T07:04:17;8.23;;;5.57;;
84893;SDS011;75409;50.000;9.432;2024-02-15T07:06:43;9.90;;;7.50;;
84893;SDS011;75409;50.000;9.432;2024-02-15T07:09:11;10.52;;;7.68;;
84893;SDS011;75409;50.000;9.432;2024-02-15T07:14:34;9.00;;;6.38;;
84893;SDS011;75409;50.000;9.432;2024-02-15T07:16:59;6.80;;;5.30;;
84893;SDS011;75409;50.000;9.432;2024-02-15T07:19:24;8.33;;;5.20;;
84893;SDS011;75409;50.000;9.432;2024-02-15T07:21:52;11.55;;;8.07;;
84893;SDS011;75409;50.000;9.432;2024-02-15T07:24:17;13.97;;;8.73;;
84893;SDS011;75409;50.000;9.432;2024-02-15T07:26:42;12.90;;;8.50;;
84893;SDS011;75409;50.000;9.432;2024-02-15T07:29:08;14.98;;;10.13;;
84893;SDS011;75409;50.000;9.432;2024-02-15T07:31:34;19.48;;;11.57;;
84893;SDS011;75409;50.000;9.432;2024-02-15T07:33:59;20.00;;;12.88;;
84893;SDS011;75409;50.000;9.432;2024-02-15T07:36:25;25.02;;;17.30;;
84893;SDS011;75409;50.000;9.432;2024-02-15T07:38:51;25.77;;;18.20;;
84893;SDS011;75409;50.000;9.432;2024-02-15T07:41:18;29.17;;;18.60;;
84893;SDS011;75409;50.000;9.432;2024-02-15T07:43:50;30.05;;;18.73;;
84893;SDS011;75409;50.000;9.432;2024-02-15T07:46:17;28.52;;;17.92;;
84893;SDS011;75409;50.000;9.432;2024-02-15T07:48:43;25.63;;;16.63;;
84893;SDS011;75409;50.000;9.432;2024-02-15T07:51:12;27.52;;;17.27;;
84893;SDS011;75409;50.000;9.432;2024-02-15T07:53:40;38.67;;;24.13;;
84893;SDS011;75409;50.000;9.432;2024-02-15T07:56:07;41.75;;;26.05;;
84893;SDS011;75409;50.000;9.432;2024-02-15T07:58:33;50.65;;;29.00;;
84893;SDS011;75409;50.000;9.432;2024-02-15T08:00:58;42.30;;;24.80;;
84893;SDS011;75409;50.000;9.432;2024-02-15T08:03:24;29.95;;;17.88;;
84893;SDS011;75409;50.000;9.432;2024-02-15T08:05:50;31.88;;;17.88;;
84893;SDS011;75409;50.000;9.432;2024-02-15T08:08:17;28.00;;;15.30;;
84893;SDS011;75409;50.000;9.432;2024-02-15T08:10:43;24.77;;;16.23;;
84893;SDS011;75409;50.000;9.432;2024-02-15T08:13:10;26.15;;;14.73;;
84893;SDS011;75409;50.000;9.432;2024-02-15T08:15:35;23.57;;;13.63;;
84893;SDS011;75409;50.000;9.432;2024-02-15T08:18:00;25.03;;;14.60;;
84893;SDS011;75409;50.000;9.432;2024-02-15T08:20:30;19.25;;;10.95;;
84893;SDS011;75409;50.000;9.432;2024-02-15T08:22:56;19.90;;;10.57;;
84893;SDS011;75409;50.000;9.432;2024-02-15T08:25:23;18.08;;;10.75;;
84893;SDS011;75409;50.000;9.432;2024-02-15T08:27:49;20.43;;;11.00;;
84893;SDS011;75409;50.000;9.432;2024-02-15T08:30:15;22.58;;;13.07;;
84893;SDS011;75409;50.000;9.432;2024-02-15T08:32:41;20.73;;;13.13;;
84893;SDS011;75409;50.000;9.432;2024-02-15T08:35:07;19.90;;;13.77;;
84893;SDS011;75409;50.000;9.432;2024-02-15T08:37:37;20.83;;;12.23;;
84893;SDS011;75409;50.000;9.432;2024-02-15T08:40:04;22.55;;;13.85;;
84893;SDS011;75409;50.000;9.432;2024-02-15T08:42:35;18.25;;;11.38;;
84893;SDS011;75409;50.000;9.432;2024-02-15T08:45:01;32.70;;;19.05;;
84893;SDS011;75409;50.000;9.432;2024-02-15T08:47:26;19.80;;;13.23;;
84893;SDS011;75409;50.000;9.432;2024-02-15T08:49:52;16.52;;;10.50;;
84893;SDS011;75409;50.000;9.432;2024-02-15T08:52:17;26.20;;;16.87;;
84893;SDS011;75409;50.000;9.432;2024-02-15T08:54:43;23.92;;;17.83;;
84893;SDS011;75409;50.000;9.432;2024-02-15T08:57:08;49.78;;;33.42;;
84893;SDS011;75409;50.000;9.432;2024-02-15T08:59:34;37.80;;;25.57;;
84893;SDS011;75409;50.000;9.432;2024-02-15T09:01:59;29.23;;;17.90;;
84893;SDS011;75409;50.000;9.432;2024-02-15T09:04:25;31.70;;;19.10;;
84893;SDS011;75409;50.000;9.432;2024-02-15T09:06:51;126.43;;;56.35;;
84893;SDS011;75409;50.000;9.432;2024-02-15T09:09:17;31.98;;;19.77;;
84893;SDS011;75409;50.000;9.432;2024-02-15T09:11:42;16.05;;;11.57;;
84893;SDS011;75409;50.000;9.432;2024-02-15T09:14:08;13.32;;;9.32;;
84893;SDS011;75409;50.000;9.432;2024-02-15T09:16:36;10.68;;;8.05;;
84893;SDS011;75409;50.000;9.432;2024-02-15T09:19:01;11.77;;;8.20;;
84893;SDS011;75409;50.000;9.432;2024-02-15T09:21:27;13.02;;;7.15;;
84893;SDS011;75409;50.000;9.432;2024-02-15T09:23:54;9.90;;;5.43;;
84893;SDS011;75409;50.000;9.432;2024-02-15T09:26:19;6.68;;;5.38;;
84893;SDS011;75409;50.000;9.432;2024-02-15T09:28:44;9.15;;;5.25;;
84893;SDS011;75409;50.000;9.432;2024-02-15T09:31:12;9.10;;;5.70;;
84893;SDS011;75409;50.000;9.432;2024-02-15T09:33:38;12.90;;;8.90;;
84893;SDS011;75409;50.000;9.432;2024-02-15T09:36:04;7.70;;;6.18;;
84893;SDS011;75409;50.000;9.432;2024-02-15T09:38:29;8.77;;;6.28;;
84893;SDS011;75409;50.000;9.432;2024-02-15T09:40:55;10.90;;;7.93;;
84893;SDS011;75409;50.000;9.432;2024-02-15T09:43:20;22.65;;;14.40;;
84893;SDS011;75409;50.000;9.432;2024-02-15T09:45:46;25.25;;;15.88;;
84893;SDS011;75409;50.000;9.432;2024-02-15T09:48:12;28.67;;;17.25;;
84893;SDS011;75409;50.000;9.432;2024-02-15T09:50:39;20.88;;;13.15;;
84893;SDS011;75409;50.000;9.432;2024-02-15T09:53:07;12.02;;;7.95;;
84893;SDS011;75409;50.000;9.432;2024-02-15T09:55:34;12.85;;;9.00;;
84893;SDS011;75409;50.000;9.432;2024-02-15T09:58:00;8.43;;;6.20;;
84893;SDS011;75409;50.000;9.432;2024-02-15T10:00:26;12.50;;;7.70;;
84893;SDS011;75409;50.000;9.432;2024-02-15T10:02:51;8.68;;;5.20;;
84893;SDS011;75409;50.000;9.432;2024-02-15T10:07:46;9.30;;;4.53;;
84893;SDS011;75409;50.000;9.432;2024-02-15T10:10:15;6.43;;;4.25;;
84893;SDS011;75409;50.000;9.432;2024-02-15T10:12:44;5.78;;;2.80;;
84893;SDS011;75409;50.000;9.432;2024-02-15T10:15:26;4.07;;;2.30;;
84893;SDS011;75409;50.000;9.432;2024-02-15T10:17:58;4.50;;;2.70;;
84893;SDS011;75409;50.000;9.432;2024-02-15T10:20:24;6.38;;;2.75;;
84893;SDS011;75409;50.000;9.432;2024-02-15T10:25:25;4.30;;;1.75;;
84893;SDS011;75409;50.000;9.432;2024-02-15T10:27:51;5.97;;;3.38;;
84893;SDS011;75409;50.000;9.432;2024-02-15T10:30:26;4.28;;;1.85;;
84893;SDS011;75409;50.000;9.432;2024-02-15T10:32:52;5.85;;;3.05;;
84893;SDS011;75409;50.000;9.432;2024-02-15T10:35:21;11.57;;;6.18;;
84893;SDS011;75409;50.000;9.432;2024-02-15T10:40:14;12.05;;;6.43;;
84893;SDS011;75409;50.000;9.432;2024-02-15T10:42:43;6.10;;;2.58;;
84893;SDS011;75409;50.000;9.432;2024-02-15T10:45:14;8.32;;;3.13;;
84893;SDS011;75409;50.000;9.432;2024-02-15T10:47:43;4.28;;;2.05;;
84893;SDS011;75409;50.000;9.432;2024-02-15T10:50:10;8.25;;;4.15;;
84893;SDS011;75409;50.000;9.432;2024-02-15T10:52:36;6.60;;;2.15;;
84893;SDS011;75409;50.000;9.432;2024-02-15T10:55:05;7.82;;;4.85;;
84893;SDS011;75409;50.000;9.432;2024-02-15T10:57:39;2.33;;;1.60;;
84893;SDS011;75409;50.000;9.432;2024-02-15T11:00:08;3.75;;;1.95;;
84893;SDS011;75409;50.000;9.432;2024-02-15T11:02:38;8.80;;;2.47;;
84893;SDS011;75409;50.000;9.432;2024-02-15T11:05:08;4.18;;;1.67;;
84893;SDS011;75409;50.000;9.432;2024-02-15T11:07:35;3.13;;;1.23;;
84893;SDS011;75409;50.000;9.432;2024-02-15T11:10:00;2.90;;;1.42;;
84893;SDS011;75409;50.000;9.432;2024-02-15T11:12:26;4.50;;;2.35;;
84893;SDS011;75409;50.000;9.432;2024-02-15T11:14:52;9.50;;;3.47;;
84893;SDS011;75409;50.000;9.432;2024-02-15T11:20:04;4.63;;;1.92;;
84893;SDS011;75409;50.000;9.432;2024-02-15T11:22:34;3.75;;;1.60;;
84893;SDS011;75409;50.000;9.432;2024-02-15T11:25:02;6.07;;;2.05;;
84893;SDS011;75409;50.000;9.432;2024-02-15T11:27:33;3.28;;;1.55;;
84893;SDS011;75409;50.000;9.432;2024-02-15T11:30:02;4.97;;;1.35;;
84893;SDS011;75409;50.000;9.432;2024-02-15T11:35:03;5.83;;;2.47;;
84893;SDS011;75409;50.000;9.432;2024-02-15T11:40:17;7.90;;;3.03;;
84893;SDS011;75409;50.000;9.432;2024-02-15T11:42:44;14.48;;;7.30;;
84893;SDS011;75409;50.000;9.432;2024-02-15T11:45:09;19.80;;;8.65;;
84893;SDS011;75409;50.000;9.432;2024-02-15T11:47:39;24.10;;;10.23;;
84893;SDS011;75409;50.000;9.432;2024-02-15T11:50:07;12.75;;;6.35;;
84893;SDS011;75409;50.000;9.432;2024-02-15T11:52:37;6.47;;;3.72;;
84893;SDS011;75409;50.000;9.432;2024-02-15T11:55:09;9.00;;;6.57;;
84893;SDS011;75409;50.000;9.432;2024-02-15T11:57:40;4.80;;;1.67;;
84893;SDS011;75409;50.000;9.432;2024-02-15T12:00:25;3.40;;;2.28;;
84893;SDS011;75409;50.000;9.432;2024-02-15T12:03:09;2.30;;;1.45;;
84893;SDS011;75409;50.000;9.432;2024-02-15T12:05:54;2.40;;;1.48;;
84893;SDS011;75409;50.000;9.432;2024-02-15T12:08:38;1.67;;;1.45;;
84893;SDS011;75409;50.000;9.432;2024-02-15T12:11:22;3.05;;;1.02;;
84893;SDS011;75409;50.000;9.432;2024-02-15T12:14:06;9.15;;;5.15;;
84893;SDS011;75409;50.000;9.432;2024-02-15T12:17:03;15.57;;;8.90;;
84893;SDS011;75409;50.000;9.432;2024-02-15T12:19:49;5.20;;;2.25;;
84893;SDS011;75409;50.000;9.432;2024-02-15T12:22:20;3.42;;;1.65;;
84893;SDS011;75409;50.000;9.432;2024-02-15T12:24:53;6.45;;;2.22;;
84893;SDS011;75409;50.000;9.432;2024-02-15T12:27:25;5.85;;;2.83;;
84893;SDS011;75409;50.000;9.432;2024-02-15T12:29:58;3.47;;;1.63;;
84893;SDS011;75409;50.000;9.432;2024-02-15T12:32:24;2.50;;;1.80;;
84893;SDS011;75409;50.000;9.432;2024-02-15T12:34:51;4.25;;;2.40;;
84893;SDS011;75409;50.000;9.432;2024-02-15T12:37:17;2.55;;;1.75;;
84893;SDS011;75409;50.000;9.432;2024-02-15T12:39:49;2.97;;;1.50;;
84893;SDS011;75409;50.000;9.432;2024-02-15T12:42:15;2.63;;;1.35;;
84893;SDS011;75409;50.000;9.432;2024-02-15T12:44:45;3.05;;;1.40;;
84893;SDS011;75409;50.000;9.432;2024-02-15T12:47:21;4.55;;;2.00;;
84893;SDS011;75409;50.000;9.432;2024-02-15T12:49:50;4.13;;;1.80;;
84893;SDS011;75409;50.000;9.432;2024-02-15T12:55:10;4.90;;;2.47;;
84893;SDS011;75409;50.000;9.432;2024-02-15T12:57:43;5.32;;;1.40;;
84893;SDS011;75409;50.000;9.432;2024-02-15T13:00:15;3.20;;;1.40;;
84893;SDS011;75409;50.000;9.432;2024-02-15T13:02:43;4.72;;;2.15;;
84893;SDS011;75409;50.000;9.432;2024-02-15T13:05:18;2.17;;;1.52;;
84893;SDS011;75409;50.000;9.432;2024-02-15T13:07:44;2.15;;;1.13;;
84893;SDS011;75409;50.000;9.432;2024-02-15T13:10:10;5.43;;;2.63;;
84893;SDS011;75409;50.000;9.432;2024-02-15T13:12:36;3.47;;;1.20;;
84893;SDS011;75409;50.000;9.432;2024-02-15T13:15:05;3.33;;;1.67;;
84893;SDS011;75409;50.000;9.432;2024-02-15T13:19:58;6.80;;;2.95;;
84893;SDS011;75409;50.000;9.432;2024-02-15T13:22:29;3.10;;;2.10;;
84893;SDS011;75409;50.000;9.432;2024-02-15T13:24:54;2.70;;;1.20;;
84893;SDS011;75409;50.000;9.432;2024-02-15T13:27:20;3.80;;;1.45;;
84893;SDS011;75409;50.000;9.432;2024-02-15T13:29:48;2.97;;;2.08;;
84893;SDS011;75409;50.000;9.432;2024-02-15T13:32:13;5.53;;;3.22;;
84893;SDS011;75409;50.000;9.432;2024-02-15T13:34:41;3.63;;;2.28;;
84893;SDS011;75409;50.000;9.432;2024-02-15T13:37:07;8.80;;;3.83;;
84893;SDS011;75409;50.000;9.432;2024-02-15T13:39:32;5.53;;;3.63;;
84893;SDS011;75409;50.000;9.432;2024-02-15T13:41:58;3.33;;;1.90;;
84893;SDS011;75409;50.000;9.432;2024-02-15T13:44:25;3.72;;;1.75;;
84893;SDS011;75409;50.000;9.432;2024-02-15T13:46:50;4.25;;;1.48;;
84893;SDS011;75409;50.000;9.432;2024-02-15T13:49:15;4.90;;;2.60;;
84893;SDS011;75409;50.000;9.432;2024-02-15T13:51:42;3.65;;;1.40;;
84893;SDS011;75409;50.000;9.432;2024-02-15T13:54:07;3.13;;;1.20;;
84893;SDS011;75409;50.000;9.432;2024-02-15T13:56:33;3.45;;;1.63;;
84893;SDS011;75409;50.000;9.432;2024-02-15T13:58:58;3.67;;;1.85;;
84893;SDS011;75409;50.000;9.432;2024-02-15T14:01:27;3.80;;;1.70;;
84893;SDS011;75409;50.000;9.432;2024-02-15T14:03:53;4.15;;;1.42;;
84893;SDS011;75409;50.000;9.432;2024-02-15T14:06:18;3.80;;;1.73;;
84893;SDS011;75409;50.000;9.432;2024-02-15T14:08:44;2.38;;;1.30;;
84893;SDS011;75409;50.000;9.432;2024-02-15T14:11:09;4.67;;;1.70;;
84893;SDS011;75409;50.000;9.432;2024-02-15T14:13:35;4.35;;;1.70;;
84893;SDS011;75409;50.000;9.432;2024-02-15T14:16:10;4.28;;;1.40;;
84893;SDS011;75409;50.000;9.432;2024-02-15T14:18:37;2.65;;;1.08;;
84893;SDS011;75409;50.000;9.432;2024-02-15T14:21:04;3.00;;;1.25;;
84893;SDS011;75409;50.000;9.432;2024-02-15T14:23:29;3.13;;;1.10;;
84893;SDS011;75409;50.000;9.432;2024-02-15T14:25:54;3.10;;;1.42;;
84893;SDS011;75409;50.000;9.432;2024-02-15T14:28:25;3.53;;;1.55;;
84893;SDS011;75409;50.000;9.432;2024-02-15T14:30:50;3.73;;;1.23;;
84893;SDS011;75409;50.000;9.432;2024-02-15T14:33:34;2.78;;;1.00;;
84893;SDS011;75409;50.000;9.432;2024-02-15T14:35:59;2.83;;;1.33;;
84893;SDS011;75409;50.000;9.432;2024-02-15T14:38:25;2.80;;;1.15;;
84893;SDS011;75409;50.000;9.432;2024-02-15T14:40:50;6.43;;;2.80;;
84893;SDS011;75409;50.000;9.432;2024-02-15T14:43:17;3.53;;;1.30;;
84893;SDS011;75409;50.000;9.432;2024-02-15T14:45:45;5.97;;;1.70;;
84893;SDS011;75409;50.000;9.432;2024-02-15T14:48:11;4.15;;;1.73;;
84893;SDS011;75409;50.000;9.432;2024-02-15T14:50:38;4.38;;;1.33;;
84893;SDS011;75409;50.000;9.432;2024-02-15T14:53:03;2.38;;;1.15;;
84893;SDS011;75409;50.000;9.432;2024-02-15T14:55:29;5.00;;;1.42;;
84893;SDS011;75409;50.000;9.432;2024-02-15T14:57:56;2.95;;;1.40;;
84893;SDS011;75409;50.000;9.432;2024-02-15T15:00:22;4.80;;;1.30;;
84893;SDS011;75409;50.000;9.432;2024-02-15T15:02:49;4.15;;;1.25;;
84893;SDS011;75409;50.000;9.432;2024-02-15T15:05:15;3.50;;;1.00;;
84893;SDS011;75409;50.000;9.432;2024-02-15T15:07:59;2.92;;;1.15;;
84893;SDS011;75409;50.000;9.432;2024-02-15T15:14:05;4.60;;;2.40;;